YSNW/NOA METAR and TAF weather

Enter ICAO airport designator
Station Type Date Time Source
YSNW METAR 2021/01/27 13:00 UTC NOAA

YSNW 271300Z AUTO 16007KT 9999 // OVC046 18/18 Q1019


Station Type Date Time Source
YSNW Decoded METAR 2021/01/27 13:00 UTC NOAA

Nowra Ran Air Station, Australia (YSNW) 34-57S 150-32E 110M
Jan 27, 2021 - 08:00 AM EST / 2021.01.27 1300 UTC
Wind: from the SSE (160 degrees) at 8 MPH (7 KT):0
Visibility: greater than 7 mile(s):0
Sky conditions: overcast
Temperature: 64 F (18 C)
Dew Point: 64 F (18 C)
Relative Humidity: 100%
Pressure (altimeter): 30.09 in. Hg (1019 hPa)
ob: YSNW 271300Z AUTO 16007KT 9999 // OVC046 18/18 Q1019
cycle: 13

Station Type Date Time Source
YSNW TAF UTC NOAA

Error!

Example: see airport list